Time;durP1;ratioP1;P1;durP2;ratioP2;P2;SDS_P1;SDS_P2;PMS_P1;PMS_P2;Temp;Humidity;BMP_temperature;BMP_pressure;BME280_temperature;BME280_humidity;BME280_pressure;Samples;Min_cycle;Max_cycle;Signal;HPM_P1;HPM_P2
2024/01/09 00:00:38;;;;;;;3.00;1.30;;;-1.80;99.90;;;;;;5033773;28;20112;-52
2024/01/09 00:03:04;;;;;;;2.67;1.73;;;-1.70;99.90;;;;;;5033683;28;20017;-57
2024/01/09 00:05:30;;;;;;;5.57;1.75;;;-1.80;99.90;;;;;;5033658;28;20539;-54
2024/01/09 00:07:55;;;;;;;2.35;1.65;;;-1.70;99.90;;;;;;5033472;28;20167;-54
2024/01/09 00:10:21;;;;;;;3.78;1.52;;;-1.70;99.90;;;;;;5033614;28;20375;-55
2024/01/09 00:12:47;;;;;;;2.45;1.15;;;-1.80;99.90;;;;;;5033713;28;20026;-55
2024/01/09 00:15:13;;;;;;;3.05;1.33;;;-1.80;99.90;;;;;;5033526;28;20030;-54
2024/01/09 00:17:38;;;;;;;3.22;1.40;;;-1.80;99.90;;;;;;5033494;28;20478;-54
2024/01/09 00:20:04;;;;;;;2.45;1.33;;;-1.80;99.90;;;;;;5033548;28;20021;-59
2024/01/09 00:22:30;;;;;;;3.75;1.58;;;-1.80;99.90;;;;;;5033146;28;20565;-54
2024/01/09 00:24:55;;;;;;;3.15;1.48;;;-1.80;99.90;;;;;;5032632;28;20053;-55
2024/01/09 00:27:21;;;;;;;5.15;1.95;;;-1.80;99.90;;;;;;5033293;28;20076;-51
2024/01/09 00:29:47;;;;;;;2.08;1.23;;;-1.80;99.90;;;;;;5033420;28;20024;-52
2024/01/09 00:32:12;;;;;;;2.30;1.40;;;-1.80;99.90;;;;;;5033502;28;20100;-53
2024/01/09 00:34:40;;;;;;;2.65;1.50;;;-1.90;99.90;;;;;;5033399;28;20071;-51
2024/01/09 00:37:05;;;;;;;2.20;1.02;;;-1.90;99.90;;;;;;5033429;28;20024;-54
2024/01/09 00:39:31;;;;;;;2.45;1.15;;;-1.90;99.90;;;;;;5031802;28;20014;-57
2024/01/09 00:41:57;;;;;;;1.83;1.27;;;-1.90;99.90;;;;;;5032849;28;20033;-53
2024/01/09 00:44:22;;;;;;;10.70;2.03;;;-1.90;99.90;;;;;;5033074;28;20356;-55
2024/01/09 00:46:48;;;;;;;5.07;1.80;;;-1.90;99.90;;;;;;5032270;28;20437;-53
2024/01/09 00:49:13;;;;;;;2.50;1.63;;;-2.00;99.90;;;;;;5032079;28;20496;-53
2024/01/09 00:51:39;;;;;;;3.13;1.75;;;-1.90;99.90;;;;;;5031336;28;20083;-55
2024/01/09 00:54:05;;;;;;;2.95;1.80;;;-2.00;99.90;;;;;;5030376;28;20033;-54
2024/01/09 00:56:31;;;;;;;2.22;1.60;;;-2.00;99.90;;;;;;5031947;28;20025;-55
2024/01/09 00:58:56;;;;;;;4.80;1.58;;;-2.10;99.90;;;;;;5031553;28;20029;-55
2024/01/09 01:01:22;;;;;;;2.22;1.58;;;-2.10;99.90;;;;;;5032690;28;20394;-55
2024/01/09 01:03:47;;;;;;;4.90;2.08;;;-2.00;99.90;;;;;;5032773;28;20025;-54
2024/01/09 01:06:13;;;;;;;2.65;1.30;;;-2.00;99.90;;;;;;5032694;28;20021;-53
2024/01/09 01:08:39;;;;;;;4.10;1.40;;;-2.00;99.90;;;;;;5032788;28;20106;-53
2024/01/09 01:11:06;;;;;;;3.50;1.30;;;-2.10;99.90;;;;;;5032702;28;20410;-52
2024/01/09 01:13:32;;;;;;;2.80;1.83;;;-2.10;99.90;;;;;;5032661;28;20398;-55
2024/01/09 01:15:57;;;;;;;2.50;1.30;;;-2.10;99.90;;;;;;5032785;28;20022;-55
2024/01/09 01:18:23;;;;;;;2.65;1.45;;;-2.10;99.90;;;;;;5032579;28;20025;-52
2024/01/09 01:20:48;;;;;;;1.60;1.10;;;-2.20;99.90;;;;;;5032510;28;20028;-54
2024/01/09 01:23:14;;;;;;;2.15;1.58;;;-2.10;99.90;;;;;;5032403;28;20033;-54
2024/01/09 01:25:40;;;;;;;3.25;1.30;;;-2.10;99.90;;;;;;5032507;28;20021;-53
2024/01/09 01:28:06;;;;;;;3.20;1.33;;;-2.10;99.90;;;;;;5032579;28;20069;-53
2024/01/09 01:30:31;;;;;;;1.98;1.25;;;-2.10;99.90;;;;;;5032655;28;20470;-54
2024/01/09 01:32:57;;;;;;;2.67;1.65;;;-2.20;99.90;;;;;;5032611;28;20440;-52
2024/01/09 01:35:23;;;;;;;2.38;1.52;;;-2.10;99.90;;;;;;5032479;28;20113;-54
2024/01/09 01:37:48;;;;;;;5.90;1.70;;;-2.20;99.90;;;;;;5031908;28;20108;-51
2024/01/09 01:40:14;;;;;;;3.25;2.15;;;-2.20;99.90;;;;;;5035721;28;20424;-49
2024/01/09 01:42:40;;;;;;;5.32;1.98;;;-2.10;99.90;;;;;;5035645;28;20017;-48
2024/01/09 01:45:22;;;;;;;2.28;1.25;;;-2.10;99.90;;;;;;5035538;28;20086;-46
2024/01/09 01:50:21;;;;;;;3.38;1.40;;;-2.30;99.90;;;;;;4994560;28;20066;-79
2024/01/09 01:52:48;;;;;;;1.20;1.10;;;-2.20;99.90;;;;;;4992422;28;20089;-77
2024/01/09 01:55:16;;;;;;;1.75;1.15;;;-2.30;99.90;;;;;;4991179;28;20037;-77
2024/01/09 01:57:43;;;;;;;1.85;1.27;;;-2.20;99.90;;;;;;4995753;28;20117;-77
2024/01/09 02:00:09;;;;;;;5.00;1.80;;;-2.20;99.90;;;;;;4997095;28;20078;-78
2024/01/09 02:02:35;;;;;;;4.32;1.38;;;-2.20;99.90;;;;;;4996963;28;20034;-78
2024/01/09 02:05:02;;;;;;;3.95;1.33;;;-2.10;99.90;;;;;;4996508;28;20046;-78
2024/01/09 02:07:31;;;;;;;3.92;1.40;;;-2.10;99.90;;;;;;4996825;28;20026;-77
2024/01/09 02:09:58;;;;;;;2.42;1.52;;;-2.10;99.90;;;;;;4997175;28;20029;-76
2024/01/09 02:12:23;;;;;;;3.45;1.38;;;-2.20;99.90;;;;;;4995616;28;20137;-78
2024/01/09 02:14:49;;;;;;;2.90;1.42;;;-2.20;99.90;;;;;;4996911;28;20118;-78
2024/01/09 02:17:15;;;;;;;3.20;1.13;;;-2.20;99.90;;;;;;4995560;28;20490;-77
2024/01/09 02:19:40;;;;;;;4.35;1.85;;;-2.20;99.90;;;;;;4995466;28;20430;-76
2024/01/09 02:22:06;;;;;;;3.40;1.48;;;-2.20;99.90;;;;;;4997039;28;20381;-78
2024/01/09 02:24:32;;;;;;;2.42;1.27;;;-2.20;99.90;;;;;;4995909;28;20097;-77
2024/01/09 02:27:29;;;;;;;4.22;1.63;;;-2.20;99.90;;;;;;4995136;28;20058;-78
2024/01/09 02:29:55;;;;;;;2.40;1.20;;;-2.40;99.90;;;;;;4995978;28;20046;-78
2024/01/09 02:32:21;;;;;;;2.88;1.60;;;-2.30;99.90;;;;;;4995683;28;20390;-79
2024/01/09 02:34:47;;;;;;;1.95;1.33;;;-2.30;99.90;;;;;;4995273;28;20109;-78
2024/01/09 02:37:13;;;;;;;2.85;1.08;;;-2.30;99.90;;;;;;4996412;28;20540;-79
2024/01/09 02:39:39;;;;;;;2.75;1.30;;;-2.30;99.90;;;;;;4995385;28;20121;-79
2024/01/09 02:42:05;;;;;;;3.75;2.03;;;-2.30;99.90;;;;;;4996277;28;20121;-79
2024/01/09 02:44:30;;;;;;;3.70;1.40;;;-2.40;99.90;;;;;;4995366;28;20035;-79
2024/01/09 02:46:57;;;;;;;2.65;1.50;;;-2.50;99.90;;;;;;4995412;28;20029;-79
2024/01/09 02:49:23;;;;;;;4.05;1.85;;;-2.40;99.90;;;;;;4995598;28;20043;-79
2024/01/09 02:51:48;;;;;;;2.03;1.35;;;-2.40;99.90;;;;;;4994983;28;20033;-79
2024/01/09 02:54:14;;;;;;;3.97;1.83;;;-2.40;99.90;;;;;;4995207;28;20482;-78
2024/01/09 02:56:41;;;;;;;1.20;1.10;;;-2.40;99.90;;;;;;4994713;28;20037;-79
2024/01/09 02:59:07;;;;;;;3.63;1.42;;;-2.40;99.90;;;;;;4995034;28;20125;-77
2024/01/09 03:01:33;;;;;;;1.52;1.15;;;-2.40;99.90;;;;;;4994650;28;20109;-77
2024/01/09 03:03:58;;;;;;;3.58;1.27;;;-2.40;99.90;;;;;;4994860;28;20499;-78
2024/01/09 03:06:24;;;;;;;3.67;1.60;;;-2.30;99.90;;;;;;4996074;28;20058;-77
2024/01/09 03:08:49;;;;;;;3.10;1.38;;;-2.30;99.90;;;;;;4994680;28;20391;-77
2024/01/09 03:11:15;;;;;;;6.28;1.90;;;-2.50;99.90;;;;;;4994740;28;20022;-77
2024/01/09 03:13:41;;;;;;;2.72;1.50;;;-2.60;99.90;;;;;;4995789;28;20077;-78
2024/01/09 03:16:12;;;;;;;3.83;1.48;;;-2.70;99.90;;;;;;4994340;28;20026;-78
2024/01/09 03:18:39;;;;;;;4.35;1.30;;;-2.70;99.90;;;;;;4992084;28;20026;-77
2024/01/09 03:21:04;;;;;;;4.10;1.40;;;-2.70;99.90;;;;;;4994742;28;20053;-77
2024/01/09 03:23:33;;;;;;;2.90;1.70;;;-2.70;99.90;;;;;;4994772;28;20034;-78
2024/01/09 03:25:59;;;;;;;1.75;1.40;;;-2.60;99.90;;;;;;4988495;28;20031;-78
2024/01/09 03:28:25;;;;;;;5.75;1.80;;;-2.70;99.90;;;;;;4982736;28;20024;-78
2024/01/09 03:30:51;;;;;;;3.80;1.40;;;-2.60;99.90;;;;;;4986554;28;20114;-78
2024/01/09 03:33:18;;;;;;;3.20;1.77;;;-2.60;99.90;;;;;;4987504;28;20501;-76
2024/01/09 03:35:43;;;;;;;3.40;1.60;;;-2.60;99.90;;;;;;4994767;28;20038;-78
2024/01/09 03:38:09;;;;;;;2.30;1.40;;;-2.60;99.90;;;;;;4994119;28;20030;-78
2024/01/09 03:40:36;;;;;;;2.28;1.63;;;-2.60;99.90;;;;;;4994192;28;20033;-78
2024/01/09 03:43:02;;;;;;;4.93;1.13;;;-2.70;99.90;;;;;;4994048;28;20098;-77
2024/01/09 03:45:29;;;;;;;3.70;1.67;;;-2.70;99.90;;;;;;4995511;28;20048;-77
2024/01/09 03:47:55;;;;;;;1.67;1.40;;;-2.70;99.90;;;;;;4995180;28;20018;-76
2024/01/09 03:50:22;;;;;;;2.53;1.38;;;-2.60;99.90;;;;;;4956051;28;20364;-77
2024/01/09 03:52:47;;;;;;;2.75;1.45;;;-2.70;99.90;;;;;;4951503;29;20027;-77
2024/01/09 03:55:15;;;;;;;1.48;1.38;;;-2.70;99.90;;;;;;4948559;29;20403;-76
2024/01/09 03:57:41;;;;;;;3.47;1.95;;;-2.70;99.90;;;;;;4955074;29;20058;-77
2024/01/09 04:00:08;;;;;;;5.63;1.83;;;-2.60;99.90;;;;;;4938325;29;20031;-77
2024/01/09 04:02:34;;;;;;;3.67;1.42;;;-2.60;99.90;;;;;;4954843;28;20102;-77
2024/01/09 04:05:00;;;;;;;5.53;1.55;;;-2.60;99.90;;;;;;4950085;29;20042;-77
2024/01/09 04:07:26;;;;;;;2.65;1.48;;;-2.70;99.90;;;;;;4952970;29;20035;-77
2024/01/09 04:09:52;;;;;;;5.35;1.27;;;-2.80;99.90;;;;;;4956139;28;20015;-86
2024/01/09 04:12:18;;;;;;;2.22;1.77;;;-2.80;99.90;;;;;;4956380;29;20023;-84
2024/01/09 04:14:43;;;;;;;2.33;1.40;;;-2.80;99.90;;;;;;4955930;29;20039;-85
2024/01/09 04:17:09;;;;;;;2.15;1.60;;;-2.80;99.90;;;;;;4955371;28;20035;-86
2024/01/09 04:19:41;;;;;;;3.30;1.60;;;-2.80;99.90;;;;;;4951244;28;20050;-86
2024/01/09 04:22:07;;;;;;;3.90;1.50;;;-2.70;99.90;;;;;;4955480;28;20027;-86
2024/01/09 04:24:34;;;;;;;2.90;2.15;;;-2.80;99.90;;;;;;4955301;29;20024;-86
2024/01/09 04:27:02;;;;;;;2.45;2.00;;;-2.80;99.90;;;;;;4956113;29;20468;-85
2024/01/09 04:29:27;;;;;;;4.85;1.48;;;-2.80;99.90;;;;;;4956823;28;20102;-87
2024/01/09 04:31:53;;;;;;;2.17;1.40;;;-2.70;99.90;;;;;;4956951;28;20042;-87
2024/01/09 04:34:19;;;;;;;4.25;2.53;;;-2.70;99.90;;;;;;4954220;28;20052;-85
2024/01/09 04:36:44;;;;;;;5.05;1.58;;;-2.80;99.90;;;;;;4956980;28;20035;-85
2024/01/09 04:39:10;;;;;;;3.63;1.75;;;-2.80;99.90;;;;;;4959555;29;20399;-86
2024/01/09 04:41:36;;;;;;;2.65;1.45;;;-2.90;99.90;;;;;;4956098;28;20027;-87
2024/01/09 04:44:01;;;;;;;3.55;1.73;;;-2.90;99.90;;;;;;4957943;29;20534;-86
2024/01/09 04:46:27;;;;;;;2.13;1.05;;;-3.00;99.90;;;;;;4957618;28;20042;-86
2024/01/09 04:48:53;;;;;;;7.72;1.55;;;-2.90;99.90;;;;;;4972322;28;20182;-85
2024/01/09 04:51:19;;;;;;;4.78;1.40;;;-3.00;99.90;;;;;;4994600;28;20498;-86
2024/01/09 04:53:44;;;;;;;2.90;1.73;;;-2.80;99.90;;;;;;4995398;28;20038;-84
2024/01/09 04:56:10;;;;;;;4.55;1.73;;;-2.90;99.90;;;;;;4994345;28;20022;-85
2024/01/09 04:58:36;;;;;;;3.38;1.50;;;-2.90;99.90;;;;;;4993902;28;20030;-86
2024/01/09 05:01:01;;;;;;;3.25;1.27;;;-2.90;99.90;;;;;;4993710;28;20034;-86
2024/01/09 05:03:28;;;;;;;3.85;1.70;;;-2.90;99.90;;;;;;4994318;28;20109;-85
2024/01/09 05:05:54;;;;;;;3.63;1.50;;;-2.80;99.90;;;;;;4995155;28;20030;-85
2024/01/09 05:08:19;;;;;;;2.67;1.13;;;-2.90;99.90;;;;;;4981629;28;20097;-85
2024/01/09 05:10:46;;;;;;;2.15;1.20;;;-2.90;99.90;;;;;;4992202;28;20058;-84
2024/01/09 05:13:13;;;;;;;4.65;2.22;;;-3.00;99.90;;;;;;4993638;28;20101;-85
2024/01/09 05:15:39;;;;;;;5.88;1.38;;;-3.00;99.90;;;;;;4995373;28;20026;-85
2024/01/09 05:18:40;;;;;;;2.25;1.33;;;-3.00;99.90;;;;;;4993656;28;20500;-83
2024/01/09 05:21:06;;;;;;;3.42;2.00;;;-3.10;99.90;;;;;;4995392;28;20026;-86
2024/01/09 05:23:32;;;;;;;1.42;1.20;;;-3.10;99.90;;;;;;4994424;28;20030;-87
2024/01/09 05:25:57;;;;;;;2.88;1.85;;;-3.10;99.90;;;;;;4994749;28;20034;-85
2024/01/09 05:28:23;;;;;;;2.55;1.38;;;-3.10;99.90;;;;;;4991370;28;20031;-85
2024/01/09 05:30:49;;;;;;;2.25;1.45;;;-3.00;99.90;;;;;;4993508;28;20278;-85
2024/01/09 05:33:14;;;;;;;5.47;1.10;;;-3.00;99.90;;;;;;4995146;28;20030;-86
2024/01/09 05:35:40;;;;;;;1.58;1.10;;;-3.00;99.90;;;;;;4993555;28;20026;-85
2024/01/09 05:38:05;;;;;;;3.40;1.67;;;-3.00;99.90;;;;;;4993309;28;20034;-85
2024/01/09 05:40:31;;;;;;;3.47;1.27;;;-3.00;99.90;;;;;;4995169;28;20498;-85
2024/01/09 05:42:57;;;;;;;5.50;2.42;;;-3.10;99.90;;;;;;4995581;28;20022;-85
2024/01/09 05:45:22;;;;;;;2.67;1.50;;;-3.20;99.90;;;;;;4994102;28;20394;-85
2024/01/09 05:47:48;;;;;;;2.67;1.65;;;-3.20;99.90;;;;;;4995256;28;20533;-85
2024/01/09 05:50:14;;;;;;;3.05;1.65;;;-3.20;99.90;;;;;;4992351;28;20066;-86
2024/01/09 05:52:39;;;;;;;8.85;1.95;;;-3.20;99.90;;;;;;4994838;28;20104;-86
2024/01/09 05:55:06;;;;;;;1.95;1.40;;;-3.10;99.90;;;;;;4993319;28;20022;-86
2024/01/09 05:57:33;;;;;;;2.38;1.65;;;-3.10;99.90;;;;;;4993522;28;20034;-85
2024/01/09 05:59:59;;;;;;;3.58;1.95;;;-3.10;99.90;;;;;;4994792;28;20121;-86
2024/01/09 06:02:28;;;;;;;1.88;1.02;;;-3.10;99.90;;;;;;4993734;28;20073;-86
2024/01/09 06:04:54;;;;;;;3.78;2.08;;;-3.10;99.90;;;;;;4994732;28;20120;-86
2024/01/09 06:07:20;;;;;;;1.30;1.23;;;-3.10;99.90;;;;;;4992450;28;20023;-86
2024/01/09 06:09:46;;;;;;;2.60;1.10;;;-3.20;99.90;;;;;;4993985;28;20504;-87
2024/01/09 06:12:12;;;;;;;5.20;1.70;;;-3.20;99.90;;;;;;4995337;28;20031;-86
2024/01/09 06:14:37;;;;;;;1.23;1.02;;;-3.20;99.90;;;;;;4996406;28;20046;-86
2024/01/09 06:17:04;;;;;;;4.10;1.60;;;-3.20;99.90;;;;;;4994075;28;20034;-85
2024/01/09 06:19:30;;;;;;;3.70;1.80;;;-3.20;99.90;;;;;;4992577;28;20030;-86
2024/01/09 06:21:56;;;;;;;3.60;1.20;;;-3.20;99.90;;;;;;4995017;28;20112;-85
2024/01/09 06:24:22;;;;;;;4.55;2.13;;;-3.20;99.90;;;;;;4997719;28;20027;-87
2024/01/09 06:26:48;;;;;;;3.17;1.65;;;-3.30;99.90;;;;;;4998687;28;20396;-87
2024/01/09 06:29:13;;;;;;;4.35;1.73;;;-3.30;99.90;;;;;;4996471;28;20034;-80
2024/01/09 06:31:42;;;;;;;5.13;1.65;;;-3.40;99.90;;;;;;4996953;28;20104;-80
2024/01/09 06:34:08;;;;;;;2.80;1.77;;;-3.50;99.90;;;;;;4996889;28;20030;-78
2024/01/09 06:36:33;;;;;;;3.55;1.80;;;-3.50;99.90;;;;;;4996700;28;20034;-80
2024/01/09 06:38:59;;;;;;;5.60;2.03;;;-3.40;99.90;;;;;;4995169;28;20418;-79
2024/01/09 06:41:25;;;;;;;7.78;2.17;;;-3.50;99.90;;;;;;4996603;28;20030;-79
2024/01/09 06:43:51;;;;;;;7.22;1.70;;;-3.50;99.90;;;;;;4996452;28;20110;-80
2024/01/09 06:46:17;;;;;;;2.63;1.15;;;-3.60;99.90;;;;;;4996447;28;20037;-80
2024/01/09 06:48:42;;;;;;;1.67;0.95;;;-3.50;99.90;;;;;;4994899;28;20038;-80
2024/01/09 06:51:08;;;;;;;4.72;1.85;;;-3.50;99.90;;;;;;4995241;28;20412;-79
2024/01/09 06:53:34;;;;;;;8.30;1.92;;;-3.60;99.90;;;;;;4996468;28;20383;-79
2024/01/09 06:56:00;;;;;;;5.03;2.03;;;-3.60;99.90;;;;;;4996433;28;20030;-80
2024/01/09 06:58:25;;;;;;;4.78;1.98;;;-3.70;99.90;;;;;;4994912;28;20076;-80
2024/01/09 07:00:51;;;;;;;2.78;1.55;;;-3.70;99.90;;;;;;4994965;28;20517;-80
2024/01/09 07:03:17;;;;;;;2.83;1.80;;;-3.70;99.90;;;;;;4995171;28;20027;-79
2024/01/09 07:05:42;;;;;;;2.38;1.20;;;-3.80;99.90;;;;;;4996121;28;20031;-80
2024/01/09 07:08:08;;;;;;;5.90;2.40;;;-3.70;99.90;;;;;;4996203;28;20022;-80
2024/01/09 07:10:34;;;;;;;4.47;2.35;;;-3.70;99.90;;;;;;4996142;28;20117;-80
2024/01/09 07:13:00;;;;;;;2.60;1.13;;;-3.80;99.90;;;;;;4993391;28;20053;-79
2024/01/09 07:15:26;;;;;;;4.25;2.03;;;-3.80;99.90;;;;;;4994561;28;20073;-80
2024/01/09 07:17:52;;;;;;;14.88;1.90;;;-3.80;99.90;;;;;;4994417;28;20034;-80
2024/01/09 07:20:17;;;;;;;2.85;1.83;;;-3.80;99.90;;;;;;4993743;28;20048;-79
2024/01/09 07:22:43;;;;;;;3.30;1.70;;;-3.80;99.90;;;;;;4993004;28;20033;-80
2024/01/09 07:25:09;;;;;;;4.05;1.90;;;-3.80;99.90;;;;;;4994429;28;20057;-79
2024/01/09 07:27:35;;;;;;;5.78;1.98;;;-3.80;99.90;;;;;;4995455;28;20030;-79
2024/01/09 07:30:01;;;;;;;2.60;2.00;;;-3.80;99.90;;;;;;4995301;28;20390;-78
2024/01/09 07:32:26;;;;;;;3.63;1.67;;;-3.80;99.90;;;;;;4994056;28;20389;-78
2024/01/09 07:34:52;;;;;;;4.63;2.10;;;-3.80;99.90;;;;;;4993988;28;20041;-78
2024/01/09 07:37:18;;;;;;;4.03;1.55;;;-3.80;99.90;;;;;;4993377;28;20026;-77
2024/01/09 07:39:43;;;;;;;4.53;1.83;;;-3.90;99.90;;;;;;4994790;28;20509;-86
2024/01/09 07:42:11;;;;;;;3.55;1.88;;;-3.90;99.90;;;;;;4996852;28;20034;-88
2024/01/09 07:44:37;;;;;;;3.28;1.35;;;-3.90;99.90;;;;;;4997620;28;20030;-88
2024/01/09 07:47:03;;;;;;;5.88;2.22;;;-3.90;99.90;;;;;;4998082;28;20125;-86
2024/01/09 07:49:28;;;;;;;6.68;1.65;;;-3.90;99.90;;;;;;4996794;28;20046;-86
2024/01/09 07:51:55;;;;;;;2.90;1.80;;;-3.80;99.90;;;;;;4998645;28;20122;-88
2024/01/09 07:54:21;;;;;;;6.45;2.05;;;-3.80;99.90;;;;;;4999084;28;20340;-84
2024/01/09 07:56:47;;;;;;;3.20;1.58;;;-3.80;99.90;;;;;;4998677;28;20042;-86
2024/01/09 07:59:13;;;;;;;3.90;1.83;;;-3.90;99.90;;;;;;4997033;28;20037;-87
2024/01/09 08:01:38;;;;;;;3.85;1.38;;;-3.90;99.90;;;;;;4998628;28;20038;-87
2024/01/09 08:04:06;;;;;;;5.07;2.10;;;-3.80;99.90;;;;;;5002733;28;20176;-88
2024/01/09 08:06:32;;;;;;;3.75;1.45;;;-3.70;99.90;;;;;;5002681;28;20475;-85
2024/01/09 08:08:57;;;;;;;6.20;1.80;;;-3.70;99.90;;;;;;5006664;28;20013;-85
2024/01/09 08:11:23;;;;;;;3.63;1.70;;;-3.70;99.90;;;;;;5006988;28;20038;-86
2024/01/09 08:13:49;;;;;;;4.90;1.88;;;-3.70;99.90;;;;;;5007949;28;20094;-87
2024/01/09 08:16:14;;;;;;;3.97;1.85;;;-3.70;99.90;;;;;;5006446;28;20035;-85
2024/01/09 08:18:40;;;;;;;2.80;1.45;;;-3.60;99.90;;;;;;5007822;28;20120;-84
2024/01/09 08:21:06;;;;;;;13.10;1.52;;;-3.70;99.90;;;;;;5005235;28;20038;-87
2024/01/09 08:23:32;;;;;;;5.72;1.90;;;-3.70;99.90;;;;;;5009597;28;20071;-87
2024/01/09 08:25:57;;;;;;;5.25;1.85;;;-3.60;99.90;;;;;;5003631;28;20046;-85
2024/01/09 08:28:23;;;;;;;2.63;1.45;;;-3.50;99.90;;;;;;5010473;28;20083;-84
2024/01/09 08:30:49;;;;;;;4.57;2.00;;;-3.60;99.90;;;;;;5002282;28;20041;-79
2024/01/09 08:33:14;;;;;;;4.63;1.60;;;-3.50;99.90;;;;;;4995950;28;20026;-79
2024/01/09 08:35:40;;;;;;;1.73;1.20;;;-3.40;99.90;;;;;;4993863;28;20037;-78
2024/01/09 08:38:06;;;;;;;2.63;1.30;;;-3.30;99.90;;;;;;4982304;28;20031;-78
2024/01/09 08:40:31;;;;;;;3.55;1.48;;;-3.30;99.90;;;;;;4995424;28;20490;-80
2024/01/09 08:42:57;;;;;;;3.75;1.73;;;-3.30;99.90;;;;;;4990951;28;20023;-85
2024/01/09 08:45:24;;;;;;;3.25;1.52;;;-3.20;99.90;;;;;;4996553;28;20034;-85
2024/01/09 08:47:50;;;;;;;2.13;1.40;;;-3.20;99.90;;;;;;4995249;28;20019;-85
2024/01/09 08:50:16;;;;;;;2.70;1.75;;;-3.20;99.90;;;;;;4993005;28;20137;-82
2024/01/09 08:52:41;;;;;;;4.60;1.80;;;-3.30;99.90;;;;;;4994800;28;20057;-84
2024/01/09 08:55:07;;;;;;;2.92;1.80;;;-3.20;99.90;;;;;;4994569;28;20438;-83
2024/01/09 08:57:33;;;;;;;4.90;1.77;;;-3.30;99.90;;;;;;4992669;28;20031;-84
2024/01/09 08:59:59;;;;;;;5.15;1.55;;;-3.30;99.90;;;;;;4992595;28;20084;-83
2024/01/09 09:02:24;;;;;;;6.93;2.03;;;-3.30;99.90;;;;;;4994623;28;20509;-83
2024/01/09 09:04:51;;;;;;;2.05;1.25;;;-3.40;99.90;;;;;;4993507;28;20026;-83
2024/01/09 09:07:20;;;;;;;1.60;1.20;;;-3.30;99.90;;;;;;4994429;28;20018;-82
2024/01/09 09:09:46;;;;;;;4.00;1.48;;;-3.20;99.90;;;;;;4994581;28;20521;-82
2024/01/09 09:12:13;;;;;;;2.25;1.75;;;-3.10;99.90;;;;;;4992387;28;20035;-82
2024/01/09 09:14:39;;;;;;;3.50;1.73;;;-3.00;99.90;;;;;;4974772;28;20031;-83
2024/01/09 09:17:05;;;;;;;2.13;1.42;;;-2.90;99.90;;;;;;4987865;28;20449;-82
2024/01/09 09:19:31;;;;;;;3.20;1.60;;;-2.90;99.90;;;;;;4992690;28;20109;-82
2024/01/09 09:22:03;;;;;;;3.67;1.85;;;-2.80;99.90;;;;;;4993042;28;20036;-83
2024/01/09 09:24:29;;;;;;;2.92;1.50;;;-2.80;99.90;;;;;;4993068;28;20113;-83
2024/01/09 09:26:54;;;;;;;2.03;1.40;;;-2.80;99.90;;;;;;4994055;28;20105;-82
2024/01/09 09:29:20;;;;;;;3.05;1.65;;;-2.70;99.90;;;;;;4992617;28;20022;-79
2024/01/09 09:31:46;;;;;;;3.85;1.55;;;-2.70;99.90;;;;;;4993496;28;20390;-79
2024/01/09 09:34:11;;;;;;;3.58;1.85;;;-2.60;99.90;;;;;;4992417;28;20026;-80
2024/01/09 09:36:37;;;;;;;3.35;1.45;;;-2.60;99.90;;;;;;4993691;28;20038;-80
2024/01/09 09:39:03;;;;;;;3.65;1.38;;;-2.50;99.90;;;;;;4994627;28;20078;-78
2024/01/09 09:41:31;;;;;;;4.97;1.17;;;-2.40;99.90;;;;;;4992170;28;20487;-78
2024/01/09 09:43:57;;;;;;;4.88;1.60;;;-2.50;99.90;;;;;;4991793;28;20023;-78
2024/01/09 09:46:29;;;;;;;2.70;1.45;;;-2.50;99.90;;;;;;4991879;28;20026;-77
2024/01/09 09:48:55;;;;;;;4.00;1.63;;;-2.40;99.90;;;;;;4993273;28;20169;-79
2024/01/09 09:51:22;;;;;;;2.13;1.48;;;-2.40;99.90;;;;;;4993488;28;20073;-80
2024/01/09 09:53:48;;;;;;;2.33;1.40;;;-2.40;99.90;;;;;;4993224;28;20169;-78
2024/01/09 09:56:14;;;;;;;3.15;1.42;;;-2.30;99.90;;;;;;4991429;28;20078;-79
2024/01/09 09:58:43;;;;;;;4.05;1.45;;;-2.20;99.90;;;;;;4995269;28;20029;-73
2024/01/09 10:01:12;;;;;;;3.30;1.77;;;-2.10;99.90;;;;;;4995208;28;20026;-74
2024/01/09 10:03:49;;;;;;;3.53;1.63;;;-2.20;99.90;;;;;;4995484;28;20026;-72
2024/01/09 10:06:17;;;;;;;2.25;1.23;;;-2.10;99.90;;;;;;4996166;28;20046;-72
2024/01/09 10:08:45;;;;;;;2.92;1.95;;;-2.00;99.90;;;;;;4994781;28;20018;-73
2024/01/09 10:11:10;;;;;;;5.40;2.00;;;-1.90;99.90;;;;;;4994496;28;20217;-73
2024/01/09 10:13:39;;;;;;;6.28;1.30;;;-1.80;99.90;;;;;;4995058;28;20109;-72
2024/01/09 10:16:05;;;;;;;2.50;1.45;;;-1.90;99.90;;;;;;4995190;28;20490;-73
2024/01/09 10:18:31;;;;;;;3.05;1.60;;;-1.80;99.90;;;;;;4996176;28;20062;-74
2024/01/09 10:21:00;;;;;;;5.15;1.02;;;-1.70;99.90;;;;;;4996152;28;20103;-73
2024/01/09 10:23:27;;;;;;;2.97;1.77;;;-1.70;99.90;;;;;;4996355;28;20027;-73
2024/01/09 10:25:55;;;;;;;3.42;1.50;;;-1.60;99.90;;;;;;4995628;28;20141;-73
2024/01/09 10:28:21;;;;;;;3.50;1.10;;;-1.50;99.90;;;;;;4996236;28;20030;-74
2024/01/09 10:30:47;;;;;;;3.53;1.98;;;-1.60;99.90;;;;;;4994668;28;20030;-73
2024/01/09 10:33:13;;;;;;;2.83;1.27;;;-1.50;99.90;;;;;;4995844;28;20062;-73
2024/01/09 10:35:40;;;;;;;3.90;1.17;;;-1.40;99.90;;;;;;4994855;28;20057;-72
2024/01/09 10:38:08;;;;;;;7.38;1.73;;;-1.40;99.90;;;;;;4995926;28;20533;-74
2024/01/09 10:40:34;;;;;;;1.63;1.17;;;-1.40;99.90;;;;;;4995484;28;20058;-73
2024/01/09 10:43:01;;;;;;;2.30;1.02;;;-1.30;99.90;;;;;;4996073;28;20101;-74
2024/01/09 10:45:27;;;;;;;4.88;1.25;;;-1.20;99.90;;;;;;4995595;28;20502;-74
2024/01/09 10:47:53;;;;;;;1.45;0.88;;;-1.20;99.90;;;;;;4995847;28;20056;-74
2024/01/09 10:50:23;;;;;;;3.03;1.05;;;-1.10;99.90;;;;;;4994303;28;20041;-73
2024/01/09 10:52:49;;;;;;;2.75;1.63;;;-1.00;99.90;;;;;;4994703;28;20054;-75
2024/01/09 10:55:16;;;;;;;3.47;1.30;;;-1.00;99.90;;;;;;4994369;28;20398;-75
2024/01/09 10:57:42;;;;;;;2.38;1.05;;;-0.90;99.90;;;;;;4994700;28;20026;-75
2024/01/09 11:00:12;;;;;;;2.70;1.25;;;-0.80;99.90;;;;;;4994662;28;20026;-76
2024/01/09 11:02:39;;;;;;;1.40;1.15;;;-0.80;99.90;;;;;;4995549;28;20038;-76
2024/01/09 11:05:05;;;;;;;4.40;1.40;;;-0.80;99.90;;;;;;4995501;28;20031;-76
2024/01/09 11:07:35;;;;;;;8.48;1.35;;;-0.80;99.90;;;;;;4994633;28;20105;-75
2024/01/09 11:10:03;;;;;;;2.92;1.60;;;-0.60;99.90;;;;;;4996642;28;20046;-85
2024/01/09 11:12:39;;;;;;;1.60;1.20;;;-0.50;99.90;;;;;;4996220;28;20160;-80
2024/01/09 11:15:09;;;;;;;0.95;0.77;;;-0.50;99.90;;;;;;4996285;28;20026;-81
2024/01/09 11:17:37;;;;;;;1.27;0.80;;;-0.60;99.90;;;;;;4994944;28;20508;-83
2024/01/09 11:20:08;;;;;;;2.80;1.50;;;-0.60;99.90;;;;;;4996390;28;20030;-81
2024/01/09 11:22:37;;;;;;;3.78;2.05;;;-0.50;99.90;;;;;;4991681;28;20105;-81
2024/01/09 11:25:23;;;;;;;5.53;2.15;;;-0.40;99.90;;;;;;4992156;28;20116;-80
2024/01/09 11:27:51;;;;;;;5.10;0.60;;;-0.40;99.90;;;;;;4994636;28;20022;-81
2024/01/09 11:30:17;;;;;;;2.22;0.88;;;-0.30;99.60;;;;;;4994236;28;20034;-79
2024/01/09 11:32:45;;;;;;;3.33;1.50;;;-0.20;99.60;;;;;;4994104;28;20042;-81
2024/01/09 11:35:15;;;;;;;1.27;0.80;;;-0.40;99.40;;;;;;4994205;28;20371;-81
2024/01/09 11:37:43;;;;;;;2.13;1.15;;;-0.40;99.50;;;;;;4994059;28;20037;-81
2024/01/09 11:40:12;;;;;;;1.55;1.13;;;-0.30;99.50;;;;;;4993401;28;20474;-80
2024/01/09 11:42:42;;;;;;;7.68;1.85;;;-0.20;98.90;;;;;;4995446;28;20072;-81
2024/01/09 11:45:08;;;;;;;2.70;1.17;;;-0.20;99.30;;;;;;4993688;28;20113;-82
2024/01/09 11:47:38;;;;;;;2.97;1.67;;;-0.10;99.90;;;;;;4994352;28;20026;-81
2024/01/09 11:50:11;;;;;;;3.85;1.42;;;0.00;99.00;;;;;;4994177;28;20458;-81
2024/01/09 11:52:39;;;;;;;4.18;1.40;;;0.00;98.60;;;;;;4991060;28;20093;-80
2024/01/09 11:55:07;;;;;;;1.33;0.82;;;0.10;98.50;;;;;;4993775;28;20069;-80
2024/01/09 11:57:39;;;;;;;;;;;0.10;98.70;;;;;;4995842;28;20032;-81
2024/01/09 12:00:06;;;;;;;2.42;1.55;;;0.10;98.20;;;;;;4974681;28;19949;-81
2024/01/09 12:02:34;;;;;;;1.15;0.98;;;0.10;98.10;;;;;;4977639;28;20048;-80
2024/01/09 12:05:07;;;;;;;1.33;0.77;;;0.10;98.70;;;;;;4992419;28;20027;-80
2024/01/09 12:07:35;;;;;;;2.75;1.23;;;0.20;98.50;;;;;;4998373;28;20030;-80
2024/01/09 12:10:02;;;;;;;4.00;1.52;;;0.00;97.50;;;;;;4995917;28;20136;-80
2024/01/09 12:12:28;;;;;;;3.65;1.15;;;0.00;97.80;;;;;;4996355;28;20041;-80
2024/01/09 12:15:00;;;;;;;5.28;2.05;;;0.10;98.10;;;;;;4996567;28;20035;-79
2024/01/09 12:17:37;;;;;;;2.55;1.10;;;0.20;97.40;;;;;;4995856;28;20405;-80
2024/01/09 12:20:05;;;;;;;1.50;0.80;;;0.20;97.70;;;;;;4994715;28;20486;-80
2024/01/09 12:22:33;;;;;;;2.13;0.75;;;0.40;98.00;;;;;;4994690;28;20406;-81
2024/01/09 12:25:00;;;;;;;5.18;1.42;;;0.50;98.30;;;;;;4997979;28;20494;-82
2024/01/09 12:27:27;;;;;;;2.97;1.10;;;0.50;97.80;;;;;;4998122;28;20033;-82
2024/01/09 12:29:56;;;;;;;2.75;1.25;;;0.40;98.40;;;;;;4996781;28;20190;-82
2024/01/09 12:32:22;;;;;;;1.70;1.10;;;0.40;98.20;;;;;;4996643;28;20049;-82
2024/01/09 12:34:48;;;;;;;3.17;1.85;;;0.30;98.00;;;;;;4996911;28;20124;-82
2024/01/09 12:37:14;;;;;;;1.90;1.05;;;0.50;98.00;;;;;;4996583;28;20038;-80
2024/01/09 12:39:42;;;;;;;4.43;1.15;;;0.50;98.20;;;;;;4995745;28;20033;-81
2024/01/09 12:42:15;;;;;;;1.37;0.97;;;0.70;98.30;;;;;;4996383;28;20125;-81
2024/01/09 12:44:44;;;;;;;0.82;0.70;;;0.70;97.90;;;;;;4995549;28;20277;-81
2024/01/09 12:47:14;;;;;;;3.63;1.05;;;0.70;97.20;;;;;;4994786;28;20018;-82